Time;durP1;ratioP1;P1;durP2;ratioP2;P2;SDS_P1;SDS_P2;PMS_P1;PMS_P2;Temp;Humidity;BMP_temperature;BMP_pressure;BME280_temperature;BME280_humidity;BME280_pressure;Samples;Min_cycle;Max_cycle;Signal;HPM_P1;HPM_P2
2023/11/01 00:00:08;;;;;;;6.50;1.20;;;10.80;99.90;;;;;;5048354;28;20459;-67
2023/11/01 00:02:36;;;;;;;6.83;1.47;;;10.70;99.90;;;;;;5039916;28;20472;-66
2023/11/01 00:05:04;;;;;;;7.53;1.63;;;10.70;99.90;;;;;;5042022;28;20516;-67
2023/11/01 00:07:34;;;;;;;7.10;1.40;;;10.70;99.90;;;;;;5044629;28;20463;-67
2023/11/01 00:10:02;;;;;;;6.63;1.60;;;10.70;99.90;;;;;;5042163;28;20940;-67
2023/11/01 00:12:30;;;;;;;6.43;1.57;;;10.70;99.90;;;;;;5040538;28;20440;-67
2023/11/01 00:14:58;;;;;;;6.80;1.40;;;10.70;99.90;;;;;;5042374;28;20468;-67
2023/11/01 00:17:26;;;;;;;7.07;1.50;;;10.80;99.90;;;;;;5045404;28;20811;-67
2023/11/01 00:19:55;;;;;;;6.47;1.10;;;10.80;99.90;;;;;;5047997;28;20507;-68
2023/11/01 00:22:23;;;;;;;7.40;1.70;;;10.90;99.90;;;;;;5040825;28;20659;-68
2023/11/01 00:24:52;;;;;;;8.13;1.27;;;10.80;99.90;;;;;;5038783;28;20491;-67
2023/11/01 00:27:20;;;;;;;6.67;1.30;;;10.80;99.90;;;;;;5046984;28;20482;-68
2023/11/01 00:29:48;;;;;;;6.87;1.33;;;10.80;99.90;;;;;;5044202;28;20433;-68
2023/11/01 00:32:17;;;;;;;9.63;1.73;;;10.80;99.90;;;;;;5040854;28;20458;-68
2023/11/01 00:34:45;;;;;;;6.93;1.17;;;10.80;99.90;;;;;;5044985;28;20491;-68
2023/11/01 00:37:13;;;;;;;7.90;1.40;;;10.80;99.90;;;;;;5041054;28;20441;-67
2023/11/01 00:39:41;;;;;;;7.03;1.57;;;10.80;99.90;;;;;;5038966;28;20994;-68
2023/11/01 00:42:10;;;;;;;6.50;1.20;;;10.80;99.90;;;;;;5047677;28;20441;-67
2023/11/01 00:44:38;;;;;;;6.80;1.50;;;10.80;99.90;;;;;;5038467;28;20460;-67
2023/11/01 00:47:07;;;;;;;8.23;1.90;;;10.70;99.90;;;;;;5047148;28;21171;-68
2023/11/01 00:49:35;;;;;;;6.37;1.23;;;10.70;99.90;;;;;;5046650;28;20457;-69
2023/11/01 00:52:03;;;;;;;6.97;1.50;;;10.80;99.90;;;;;;5039726;28;20556;-68
2023/11/01 00:54:31;;;;;;;7.50;1.17;;;10.80;99.90;;;;;;5042901;28;20895;-65
2023/11/01 00:56:59;;;;;;;7.07;1.30;;;10.80;99.90;;;;;;5046988;28;20434;-65
2023/11/01 00:59:28;;;;;;;6.80;1.10;;;10.90;99.90;;;;;;5034875;28;20540;-65
2023/11/01 01:01:56;;;;;;;5.70;1.07;;;10.90;99.90;;;;;;5046501;28;20480;-65
2023/11/01 01:04:24;;;;;;;5.93;0.97;;;10.90;99.90;;;;;;5044902;28;20526;-65
2023/11/01 01:06:52;;;;;;;7.50;1.37;;;10.90;99.90;;;;;;5039313;28;20934;-65
2023/11/01 01:09:20;;;;;;;7.50;1.23;;;10.90;99.90;;;;;;5043224;28;20507;-65
2023/11/01 01:11:47;;;;;;;6.67;1.27;;;10.90;99.90;;;;;;5038777;28;20494;-65
2023/11/01 01:14:17;;;;;;;6.40;1.20;;;10.90;99.90;;;;;;5046006;28;20513;-66
2023/11/01 01:16:47;;;;;;;8.73;1.40;;;10.90;99.90;;;;;;5047013;28;20441;-68
2023/11/01 01:19:14;;;;;;;7.50;1.33;;;10.90;99.90;;;;;;5046277;28;20444;-68
2023/11/01 01:21:44;;;;;;;6.67;1.40;;;10.90;99.90;;;;;;5046837;28;20567;-67
2023/11/01 01:24:12;;;;;;;7.93;1.37;;;11.00;99.90;;;;;;5045397;28;20488;-68
2023/11/01 01:26:40;;;;;;;9.43;1.87;;;11.10;99.90;;;;;;5046176;28;20516;-67
2023/11/01 01:29:08;;;;;;;6.97;1.13;;;11.10;99.90;;;;;;5046491;28;20460;-67
2023/11/01 01:31:36;;;;;;;8.40;1.40;;;11.10;99.90;;;;;;5046303;28;20452;-67
2023/11/01 01:34:05;;;;;;;5.90;1.00;;;11.10;99.90;;;;;;5045037;28;20442;-67
2023/11/01 01:36:34;;;;;;;7.57;1.20;;;11.20;99.90;;;;;;5045368;28;20556;-68
2023/11/01 01:39:02;;;;;;;8.50;1.77;;;11.10;99.90;;;;;;5046680;28;20506;-68
2023/11/01 01:41:29;;;;;;;8.07;1.20;;;11.10;99.90;;;;;;5044836;28;20516;-68
2023/11/01 01:43:58;;;;;;;8.20;1.40;;;11.10;99.90;;;;;;5045678;28;21231;-67
2023/11/01 01:46:29;;;;;;;6.20;1.40;;;11.10;99.90;;;;;;5046840;28;20441;-68
2023/11/01 01:48:59;;;;;;;6.30;1.20;;;11.00;99.90;;;;;;5035817;28;20449;-66
2023/11/01 01:51:28;;;;;;;9.33;1.53;;;11.10;99.90;;;;;;5039160;28;20513;-67
2023/11/01 01:53:57;;;;;;;7.13;1.30;;;11.00;99.90;;;;;;5045974;28;20534;-67
2023/11/01 01:56:25;;;;;;;6.50;1.40;;;11.00;99.90;;;;;;5046841;28;20438;-67
2023/11/01 01:58:54;;;;;;;6.63;1.20;;;10.90;99.90;;;;;;5039228;28;20573;-67
2023/11/01 02:01:28;;;;;;;6.90;1.20;;;10.80;99.90;;;;;;5046871;28;20442;-66
2023/11/01 02:04:09;;;;;;;7.80;1.57;;;10.80;99.90;;;;;;5041462;28;20485;-67
2023/11/01 02:06:39;;;;;;;6.93;1.70;;;10.60;99.90;;;;;;5042303;28;20450;-68
2023/11/01 02:09:15;;;;;;;7.53;1.40;;;10.60;99.90;;;;;;5046772;28;20442;-66
2023/11/01 02:11:43;;;;;;;7.33;1.37;;;10.60;99.90;;;;;;5048856;28;20444;-67
2023/11/01 02:14:12;;;;;;;7.27;1.20;;;10.50;99.90;;;;;;5053020;28;20756;-69
2023/11/01 02:16:40;;;;;;;7.90;1.30;;;10.50;99.90;;;;;;5050357;28;20480;-66
2023/11/01 02:19:08;;;;;;;10.20;1.50;;;10.40;99.90;;;;;;5046471;28;20459;-67
2023/11/01 02:21:37;;;;;;;6.97;1.33;;;10.30;99.90;;;;;;5053395;28;20454;-67
2023/11/01 02:24:07;;;;;;;9.00;1.40;;;10.30;99.90;;;;;;5053120;28;20546;-67
2023/11/01 02:26:35;;;;;;;10.10;1.40;;;10.30;99.90;;;;;;5052591;28;20508;-67
2023/11/01 02:29:05;;;;;;;6.83;1.30;;;10.30;99.90;;;;;;5051380;28;20510;-67
2023/11/01 02:31:32;;;;;;;6.43;1.50;;;10.40;99.90;;;;;;5051605;28;21065;-67
2023/11/01 02:34:00;;;;;;;7.20;1.67;;;10.30;99.90;;;;;;5050534;28;20852;-67
2023/11/01 02:36:28;;;;;;;8.33;1.70;;;10.20;99.90;;;;;;5051590;28;20450;-65
2023/11/01 02:38:56;;;;;;;6.47;1.53;;;10.20;99.90;;;;;;5051679;28;20450;-68
2023/11/01 02:41:25;;;;;;;7.07;1.20;;;10.20;99.90;;;;;;5045713;28;20460;-67
2023/11/01 02:43:53;;;;;;;6.90;1.30;;;10.20;99.90;;;;;;5042391;28;20854;-65
2023/11/01 02:46:21;;;;;;;7.70;1.50;;;10.20;99.90;;;;;;5049847;28;20495;-66
2023/11/01 02:48:49;;;;;;;7.60;1.50;;;10.20;99.90;;;;;;5051326;28;21022;-67
2023/11/01 02:51:18;;;;;;;9.10;1.77;;;10.10;99.90;;;;;;5051584;28;20483;-67
2023/11/01 02:53:45;;;;;;;10.17;1.97;;;10.10;99.90;;;;;;5050498;28;20459;-66
2023/11/01 02:56:12;;;;;;;7.87;1.53;;;10.10;99.90;;;;;;5044188;28;20925;-66
2023/11/01 02:58:42;;;;;;;8.20;1.10;;;10.10;99.90;;;;;;5051000;28;20474;-66
2023/11/01 03:01:11;;;;;;;9.30;1.30;;;10.20;99.90;;;;;;5051090;28;20456;-67
2023/11/01 03:03:39;;;;;;;6.43;1.20;;;10.20;99.90;;;;;;5049708;28;20796;-67
2023/11/01 03:06:07;;;;;;;8.27;1.50;;;10.40;99.90;;;;;;5051386;28;20473;-67
2023/11/01 03:08:36;;;;;;;10.90;3.27;;;10.40;99.90;;;;;;5051124;28;20532;-66
2023/11/01 03:11:04;;;;;;;7.70;1.23;;;10.40;99.90;;;;;;5050686;28;21006;-67
2023/11/01 03:13:32;;;;;;;8.63;1.40;;;10.50;99.90;;;;;;5050122;28;21111;-67
2023/11/01 03:16:01;;;;;;;9.00;1.40;;;10.50;99.90;;;;;;5051206;28;20484;-68
2023/11/01 03:18:29;;;;;;;8.70;1.43;;;10.50;99.90;;;;;;5050702;28;20457;-67
2023/11/01 03:20:58;;;;;;;7.37;1.30;;;10.40;99.90;;;;;;5050931;28;20529;-67
2023/11/01 03:23:26;;;;;;;8.20;1.00;;;10.30;99.90;;;;;;5050352;28;20444;-67
2023/11/01 03:25:54;;;;;;;7.90;1.20;;;10.40;99.90;;;;;;5050855;28;20864;-67
2023/11/01 03:28:21;;;;;;;8.60;1.57;;;10.40;99.90;;;;;;5048195;28;20483;-67
2023/11/01 03:30:49;;;;;;;7.73;1.30;;;10.40;99.90;;;;;;5050602;28;20456;-66
2023/11/01 03:33:19;;;;;;;7.57;1.50;;;10.50;99.90;;;;;;5049947;28;20458;-67
2023/11/01 03:35:47;;;;;;;8.57;1.13;;;10.50;99.90;;;;;;5050427;28;20990;-67
2023/11/01 03:38:15;;;;;;;8.50;1.40;;;10.40;99.90;;;;;;5050194;28;20584;-67
2023/11/01 03:40:43;;;;;;;6.93;1.30;;;10.50;99.90;;;;;;5050396;28;20908;-67
2023/11/01 03:43:11;;;;;;;6.50;1.27;;;10.50;99.90;;;;;;5050023;28;20479;-67
2023/11/01 03:45:39;;;;;;;7.23;1.40;;;10.50;99.90;;;;;;5048398;28;20538;-67
2023/11/01 03:48:07;;;;;;;6.97;1.13;;;10.50;99.90;;;;;;5050541;28;21009;-67
2023/11/01 03:50:37;;;;;;;7.17;1.20;;;10.60;99.90;;;;;;5050302;28;20463;-67
2023/11/01 03:53:05;;;;;;;7.17;1.10;;;10.60;99.90;;;;;;5049143;28;20471;-67
2023/11/01 03:55:33;;;;;;;9.13;1.20;;;10.50;99.90;;;;;;5049502;28;21171;-67
2023/11/01 03:58:01;;;;;;;6.70;1.00;;;10.50;99.90;;;;;;5042981;28;20451;-67
2023/11/01 04:00:29;;;;;;;11.77;2.30;;;10.40;99.90;;;;;;5050319;28;20522;-67
2023/11/01 04:02:57;;;;;;;8.90;1.07;;;10.40;99.90;;;;;;5049609;28;21008;-66
2023/11/01 04:05:25;;;;;;;7.10;1.10;;;10.40;99.90;;;;;;5050384;28;20527;-67
2023/11/01 04:07:54;;;;;;;7.47;0.93;;;10.50;99.90;;;;;;5051163;28;20480;-67
2023/11/01 04:10:22;;;;;;;7.20;1.07;;;10.50;99.90;;;;;;5050433;28;20448;-67
2023/11/01 04:12:51;;;;;;;7.00;1.00;;;10.50;99.90;;;;;;5042342;28;20459;-67
2023/11/01 04:15:21;;;;;;;7.20;1.13;;;10.50;99.90;;;;;;5043254;28;20465;-66
2023/11/01 04:17:49;;;;;;;6.23;1.20;;;10.40;99.90;;;;;;5048425;28;20452;-65
2023/11/01 04:20:17;;;;;;;7.50;1.10;;;10.30;99.90;;;;;;5049928;28;20529;-65
2023/11/01 04:22:45;;;;;;;6.43;0.90;;;10.20;99.90;;;;;;5049593;28;20460;-65
2023/11/01 04:25:15;;;;;;;7.70;1.20;;;10.10;99.90;;;;;;5048806;28;20507;-65
2023/11/01 04:27:43;;;;;;;6.30;1.10;;;10.10;99.90;;;;;;5047603;28;20456;-65
2023/11/01 04:30:12;;;;;;;7.50;1.17;;;9.90;99.90;;;;;;5049177;28;20451;-65
2023/11/01 04:32:40;;;;;;;6.53;1.07;;;9.90;99.90;;;;;;5049365;28;20456;-65
2023/11/01 04:35:09;;;;;;;7.20;1.50;;;9.80;99.90;;;;;;5048886;28;20498;-66
2023/11/01 04:37:38;;;;;;;8.03;1.10;;;9.70;99.90;;;;;;5048577;28;20823;-65
2023/11/01 04:40:07;;;;;;;6.47;1.10;;;9.70;99.90;;;;;;5049086;28;20453;-65
2023/11/01 04:42:39;;;;;;;7.03;1.00;;;9.50;99.90;;;;;;5048806;28;20453;-65
2023/11/01 04:45:08;;;;;;;8.90;2.07;;;9.60;99.90;;;;;;5049951;28;20490;-66
2023/11/01 04:47:38;;;;;;;6.07;0.93;;;9.50;99.90;;;;;;5049122;28;20468;-66
2023/11/01 04:50:08;;;;;;;8.63;1.40;;;9.40;99.90;;;;;;5049317;28;20543;-65
2023/11/01 04:52:37;;;;;;;9.00;1.33;;;9.30;99.90;;;;;;5048892;28;20466;-66
2023/11/01 04:55:05;;;;;;;7.10;1.10;;;9.20;99.90;;;;;;5048194;28;20827;-66
2023/11/01 04:57:33;;;;;;;8.13;1.20;;;9.10;99.90;;;;;;5048838;28;20879;-66
2023/11/01 05:00:08;;;;;;;7.33;1.20;;;9.10;99.90;;;;;;5048553;28;20574;-66
2023/11/01 05:02:36;;;;;;;6.97;1.10;;;9.00;99.90;;;;;;5052936;28;20439;-65
2023/11/01 05:05:06;;;;;;;8.77;1.20;;;9.00;99.90;;;;;;5047953;28;20499;-65
2023/11/01 05:07:34;;;;;;;6.00;1.10;;;8.90;99.90;;;;;;5048129;28;20459;-65
2023/11/01 05:10:03;;;;;;;6.37;1.17;;;8.90;99.90;;;;;;5048618;28;20448;-65
2023/11/01 05:12:32;;;;;;;6.33;1.10;;;8.90;99.90;;;;;;5048927;28;20457;-65
2023/11/01 05:15:00;;;;;;;7.43;1.03;;;9.00;99.90;;;;;;5040169;28;20529;-65
2023/11/01 05:17:30;;;;;;;6.90;1.20;;;8.90;99.90;;;;;;5044127;28;20457;-65
2023/11/01 05:19:58;;;;;;;7.93;1.40;;;9.00;99.90;;;;;;5048177;28;20459;-65
2023/11/01 05:22:26;;;;;;;8.73;1.10;;;9.00;99.90;;;;;;5048702;28;20458;-66
2023/11/01 05:24:54;;;;;;;6.90;0.90;;;9.00;99.90;;;;;;5047656;28;20575;-66
2023/11/01 05:27:21;;;;;;;8.10;1.20;;;9.10;99.90;;;;;;5048593;28;20528;-66
2023/11/01 05:29:49;;;;;;;7.73;1.20;;;9.10;99.90;;;;;;5048352;28;20446;-65
2023/11/01 05:32:17;;;;;;;10.17;1.40;;;9.20;99.90;;;;;;5048455;28;20475;-65
2023/11/01 05:34:48;;;;;;;8.53;1.27;;;9.20;99.90;;;;;;5038449;28;20474;-65
2023/11/01 05:37:16;;;;;;;6.73;0.90;;;9.20;99.90;;;;;;5048691;28;20439;-66
2023/11/01 05:39:44;;;;;;;6.80;1.13;;;9.30;99.90;;;;;;5048084;28;20497;-65
2023/11/01 05:42:11;;;;;;;6.47;1.27;;;9.30;99.90;;;;;;5041071;28;20537;-66
2023/11/01 05:44:39;;;;;;;7.60;1.13;;;9.30;99.90;;;;;;5047347;28;20467;-66
2023/11/01 05:47:07;;;;;;;6.33;0.97;;;9.30;99.90;;;;;;5047991;28;20598;-66
2023/11/01 05:49:37;;;;;;;11.30;1.57;;;9.30;99.90;;;;;;5047573;28;20458;-66
2023/11/01 05:52:07;;;;;;;9.53;1.37;;;9.20;99.90;;;;;;5047334;28;20511;-66
2023/11/01 05:54:35;;;;;;;6.90;1.40;;;9.10;99.90;;;;;;5047216;28;20471;-66
2023/11/01 05:57:03;;;;;;;7.20;1.50;;;9.10;99.90;;;;;;5040860;28;20492;-66
2023/11/01 05:59:31;;;;;;;7.57;1.30;;;9.00;99.90;;;;;;5047929;28;20881;-66
2023/11/01 06:01:59;;;;;;;7.73;1.40;;;9.00;99.90;;;;;;5047871;28;20447;-67
2023/11/01 06:04:27;;;;;;;8.03;2.17;;;8.90;99.90;;;;;;5047335;28;20554;-66
2023/11/01 06:06:55;;;;;;;11.00;1.53;;;8.80;99.90;;;;;;5047965;28;20486;-65
2023/11/01 06:09:24;;;;;;;7.27;1.37;;;8.90;99.90;;;;;;5047956;28;20480;-66
2023/11/01 06:11:52;;;;;;;8.30;1.27;;;8.80;99.90;;;;;;5042318;28;20452;-66
2023/11/01 06:14:22;;;;;;;7.13;1.37;;;8.80;99.90;;;;;;5046867;28;21036;-67
2023/11/01 06:16:50;;;;;;;7.37;1.73;;;8.80;99.90;;;;;;5047907;28;20505;-67
2023/11/01 06:19:18;;;;;;;6.90;1.27;;;8.70;99.90;;;;;;5047856;28;20453;-67
2023/11/01 06:21:46;;;;;;;7.10;1.40;;;8.70;99.90;;;;;;5047663;28;20929;-66
2023/11/01 06:24:14;;;;;;;6.90;1.40;;;8.80;99.90;;;;;;5046801;28;20470;-67
2023/11/01 06:26:44;;;;;;;7.07;1.70;;;8.80;99.90;;;;;;5047497;28;20488;-66
2023/11/01 06:29:12;;;;;;;10.57;1.90;;;8.80;99.90;;;;;;5045941;28;20451;-67
2023/11/01 06:31:40;;;;;;;9.50;2.00;;;8.80;99.90;;;;;;5047707;28;20461;-67
2023/11/01 06:34:08;;;;;;;8.50;1.30;;;8.80;99.90;;;;;;5047350;28;20542;-65
2023/11/01 06:36:37;;;;;;;6.40;1.53;;;8.80;99.90;;;;;;5047569;28;20485;-67
2023/11/01 06:39:05;;;;;;;10.00;1.70;;;8.80;99.90;;;;;;5043156;28;20487;-66
2023/11/01 06:41:33;;;;;;;6.93;1.50;;;8.80;99.90;;;;;;5047517;28;20447;-67
2023/11/01 06:44:02;;;;;;;7.70;1.63;;;8.90;99.90;;;;;;5047138;28;20446;-66
2023/11/01 06:46:30;;;;;;;10.40;1.83;;;8.90;99.90;;;;;;5047793;28;20495;-66
2023/11/01 06:48:59;;;;;;;6.93;1.00;;;8.90;99.90;;;;;;5042824;28;20946;-66
2023/11/01 06:51:27;;;;;;;6.67;1.20;;;9.00;99.90;;;;;;5047183;28;20463;-67
2023/11/01 06:53:55;;;;;;;10.07;1.80;;;9.00;99.90;;;;;;5046556;28;21090;-67
2023/11/01 06:56:23;;;;;;;7.50;1.10;;;9.10;99.90;;;;;;5047516;28;20439;-66
2023/11/01 06:58:51;;;;;;;7.50;1.40;;;9.20;99.90;;;;;;5049654;28;20451;-66
2023/11/01 07:01:20;;;;;;;7.20;1.20;;;9.10;99.90;;;;;;5050253;28;20553;-66
2023/11/01 07:03:48;;;;;;;7.30;1.40;;;9.30;99.90;;;;;;5049317;28;20448;-66
2023/11/01 07:06:16;;;;;;;7.40;1.10;;;9.30;99.90;;;;;;5057119;28;21332;-67
2023/11/01 07:08:44;;;;;;;9.23;1.10;;;9.30;99.90;;;;;;5051453;28;20451;-67
2023/11/01 07:11:12;;;;;;;9.43;1.83;;;9.30;99.90;;;;;;5050923;28;20513;-67
2023/11/01 07:13:40;;;;;;;8.57;1.30;;;9.30;99.90;;;;;;5049977;28;20876;-67
2023/11/01 07:16:08;;;;;;;6.30;1.47;;;9.40;99.90;;;;;;5050815;28;20521;-67
2023/11/01 07:18:40;;;;;;;7.50;1.50;;;9.30;99.90;;;;;;5045738;28;20812;-67
2023/11/01 07:21:10;;;;;;;7.80;1.70;;;9.30;99.90;;;;;;5050537;28;20455;-66
2023/11/01 07:23:38;;;;;;;8.63;1.57;;;9.40;99.90;;;;;;5050207;28;20510;-67
2023/11/01 07:26:07;;;;;;;9.07;1.60;;;9.40;99.90;;;;;;5050202;28;20846;-66
2023/11/01 07:28:36;;;;;;;7.17;1.20;;;9.40;99.90;;;;;;5049951;28;20491;-67
2023/11/01 07:31:04;;;;;;;7.33;1.60;;;9.50;99.90;;;;;;5054879;28;20444;-66
2023/11/01 07:33:32;;;;;;;9.57;1.40;;;9.50;99.90;;;;;;5049030;28;20908;-66
2023/11/01 07:36:01;;;;;;;8.87;1.60;;;9.70;99.90;;;;;;5042421;28;20495;-67
2023/11/01 07:38:29;;;;;;;6.43;1.30;;;9.80;99.90;;;;;;5050787;28;20533;-66
2023/11/01 07:40:57;;;;;;;7.80;1.73;;;9.90;99.90;;;;;;5050476;28;20457;-66
2023/11/01 07:43:25;;;;;;;6.53;1.30;;;10.10;99.90;;;;;;5049620;28;20452;-66
2023/11/01 07:45:53;;;;;;;7.40;1.07;;;10.20;99.90;;;;;;5050123;28;20462;-66
2023/11/01 07:48:21;;;;;;;6.73;1.33;;;10.30;99.90;;;;;;5044769;28;21186;-67
2023/11/01 07:50:49;;;;;;;5.97;1.00;;;10.50;99.90;;;;;;5049579;28;20457;-67
2023/11/01 07:53:19;;;;;;;6.60;1.30;;;10.60;99.90;;;;;;5049546;28;20548;-66
2023/11/01 07:55:47;;;;;;;6.67;1.27;;;10.70;99.90;;;;;;5050285;28;20474;-67
2023/11/01 07:58:20;;;;;;;7.10;1.30;;;10.80;99.90;;;;;;5050552;28;20474;-67
2023/11/01 08:00:48;;;;;;;7.67;1.30;;;10.90;99.90;;;;;;5050344;28;20450;-67
2023/11/01 08:03:15;;;;;;;11.70;1.67;;;11.00;99.90;;;;;;5044102;28;20448;-67
2023/11/01 08:05:44;;;;;;;8.43;1.40;;;11.20;99.90;;;;;;5049967;28;20513;-66
2023/11/01 08:08:12;;;;;;;7.50;1.20;;;11.40;99.90;;;;;;5050101;28;20498;-66
2023/11/01 08:10:41;;;;;;;8.63;1.50;;;11.40;99.90;;;;;;5050083;28;20455;-67
2023/11/01 08:13:10;;;;;;;8.93;1.40;;;11.60;99.90;;;;;;5049153;28;20457;-67
2023/11/01 08:15:38;;;;;;;6.60;1.27;;;11.80;99.90;;;;;;5049799;28;20476;-67
2023/11/01 08:18:06;;;;;;;6.20;1.17;;;12.00;99.90;;;;;;5046464;28;20451;-66
2023/11/01 08:20:34;;;;;;;8.07;1.50;;;12.00;99.90;;;;;;5049737;28;20455;-67
2023/11/01 08:23:02;;;;;;;9.17;1.40;;;12.00;99.90;;;;;;5049606;28;20455;-67
2023/11/01 08:25:30;;;;;;;7.30;1.30;;;12.10;99.90;;;;;;5049259;28;20463;-66
2023/11/01 08:27:59;;;;;;;6.50;1.30;;;12.30;99.90;;;;;;5049265;28;20636;-66
2023/11/01 08:30:27;;;;;;;7.50;1.30;;;12.40;99.90;;;;;;5052213;28;20448;-66
2023/11/01 08:32:55;;;;;;;7.17;0.90;;;12.40;99.90;;;;;;5049150;28;20454;-66
2023/11/01 08:35:23;;;;;;;5.80;0.90;;;12.50;99.90;;;;;;5046611;28;20536;-65
2023/11/01 08:37:52;;;;;;;6.80;1.30;;;12.60;99.90;;;;;;5049185;28;20440;-65
2023/11/01 08:40:19;;;;;;;6.57;1.30;;;12.70;99.90;;;;;;5049355;28;20990;-66
2023/11/01 08:42:48;;;;;;;6.30;1.10;;;12.70;99.90;;;;;;5041082;28;20959;-66
2023/11/01 08:45:17;;;;;;;8.43;1.00;;;12.70;99.90;;;;;;5048581;28;20537;-66
2023/11/01 08:47:45;;;;;;;6.30;1.10;;;12.80;99.90;;;;;;5049269;28;20487;-65
2023/11/01 08:50:14;;;;;;;8.40;1.30;;;12.80;99.90;;;;;;5049182;28;20457;-65
2023/11/01 08:52:43;;;;;;;6.17;1.00;;;12.90;99.90;;;;;;5048634;28;20497;-67
2023/11/01 08:55:12;;;;;;;8.00;1.93;;;12.90;99.90;;;;;;5044594;28;20481;-67
2023/11/01 08:57:42;;;;;;;7.53;1.30;;;13.00;99.90;;;;;;5045789;28;20480;-66
2023/11/01 09:00:12;;;;;;;7.27;1.53;;;13.10;99.90;;;;;;5048903;28;20458;-66
2023/11/01 09:02:41;;;;;;;10.63;1.10;;;13.20;99.90;;;;;;5048749;28;20450;-66
2023/11/01 09:05:10;;;;;;;8.50;1.13;;;13.30;99.90;;;;;;5047694;28;20576;-67
2023/11/01 09:07:38;;;;;;;8.23;1.10;;;13.40;99.90;;;;;;5042916;28;20490;-67
2023/11/01 09:10:08;;;;;;;6.80;1.10;;;13.40;99.90;;;;;;5052240;28;20860;-66
2023/11/01 09:12:36;;;;;;;6.63;1.33;;;13.50;99.90;;;;;;5044350;28;20452;-69
2023/11/01 09:15:05;;;;;;;7.47;1.30;;;13.60;99.90;;;;;;5042990;28;20474;-67
2023/11/01 09:17:34;;;;;;;6.70;1.80;;;13.70;99.90;;;;;;5048511;28;20437;-64
2023/11/01 09:20:04;;;;;;;7.60;1.00;;;13.80;99.90;;;;;;5048344;28;20567;-67
2023/11/01 09:22:32;;;;;;;7.57;0.93;;;14.00;99.90;;;;;;5048065;28;21136;-67
2023/11/01 09:25:00;;;;;;;7.90;1.50;;;14.30;99.90;;;;;;5046849;28;20500;-67
2023/11/01 09:27:28;;;;;;;8.90;1.10;;;14.60;99.90;;;;;;5048025;28;20527;-66
2023/11/01 09:29:55;;;;;;;8.33;1.20;;;14.80;99.90;;;;;;5039786;28;20458;-65
2023/11/01 09:32:23;;;;;;;7.30;1.50;;;15.00;99.90;;;;;;5047843;28;20452;-69
2023/11/01 09:34:51;;;;;;;6.90;1.13;;;15.10;99.90;;;;;;5047377;28;20476;-65
2023/11/01 09:37:22;;;;;;;7.93;1.10;;;15.40;99.90;;;;;;5048133;28;20546;-70
2023/11/01 09:39:50;;;;;;;7.50;1.23;;;15.60;99.90;;;;;;5048140;28;20817;-66
2023/11/01 09:42:21;;;;;;;6.20;1.00;;;15.90;99.90;;;;;;5047633;28;20873;-67
2023/11/01 09:44:49;;;;;;;8.10;1.23;;;15.90;99.90;;;;;;5044413;28;20554;-66
2023/11/01 09:47:18;;;;;;;6.50;1.10;;;16.10;99.90;;;;;;5046595;28;20475;-68
2023/11/01 09:49:47;;;;;;;8.40;1.00;;;16.50;99.90;;;;;;5042809;28;20460;-66
2023/11/01 09:52:16;;;;;;;7.30;0.80;;;17.00;99.90;;;;;;5046168;28;20451;-66
2023/11/01 09:54:47;;;;;;;6.90;0.87;;;17.50;99.90;;;;;;5045926;28;20566;-67
2023/11/01 09:57:16;;;;;;;6.73;0.90;;;17.90;99.90;;;;;;5046564;28;20444;-67
2023/11/01 09:59:45;;;;;;;7.07;1.20;;;18.20;99.90;;;;;;5046702;28;20494;-67
2023/11/01 10:02:13;;;;;;;8.93;1.50;;;18.30;99.90;;;;;;5044759;28;20456;-67
2023/11/01 10:04:42;;;;;;;7.03;0.90;;;18.40;99.90;;;;;;5045949;28;20563;-69
2023/11/01 10:07:10;;;;;;;6.03;0.77;;;18.50;99.90;;;;;;5046793;28;20513;-67
2023/11/01 10:09:39;;;;;;;7.17;0.93;;;18.80;99.90;;;;;;5044534;28;20452;-66
2023/11/01 10:12:09;;;;;;;5.90;0.77;;;19.10;99.90;;;;;;5040909;28;20550;-66
2023/11/01 10:14:37;;;;;;;6.30;0.90;;;19.40;99.90;;;;;;5042592;28;20480;-67
2023/11/01 10:17:06;;;;;;;8.83;1.03;;;19.70;99.90;;;;;;5046109;28;20452;-66
2023/11/01 10:19:34;;;;;;;6.30;0.80;;;19.70;99.90;;;;;;5045115;28;20467;-67
2023/11/01 10:22:02;;;;;;;5.97;0.90;;;19.90;99.90;;;;;;5046401;28;20453;-67
2023/11/01 10:24:30;;;;;;;6.10;0.80;;;19.90;99.90;;;;;;5042717;28;20475;-64
2023/11/01 10:26:58;;;;;;;6.70;0.83;;;19.70;99.90;;;;;;5045378;28;20440;-65
2023/11/01 10:29:29;;;;;;;8.20;0.90;;;19.50;99.90;;;;;;5039271;28;20643;-65
2023/11/01 10:32:00;;;;;;;6.07;0.80;;;19.30;99.90;;;;;;5046075;28;20444;-66
2023/11/01 10:34:29;;;;;;;5.67;0.60;;;19.20;99.80;;;;;;5046004;28;20549;-67
2023/11/01 10:36:58;;;;;;;5.80;0.73;;;19.20;99.70;;;;;;5039239;28;20446;-69
2023/11/01 10:39:27;;;;;;;6.53;0.83;;;19.40;99.40;;;;;;5045689;28;20544;-66
2023/11/01 10:41:56;;;;;;;8.07;0.60;;;19.60;99.00;;;;;;5046622;28;20450;-67
2023/11/01 10:44:25;;;;;;;5.80;0.80;;;19.80;98.20;;;;;;5046624;28;20470;-66
2023/11/01 10:46:56;;;;;;;8.83;1.00;;;19.90;98.30;;;;;;5047707;28;20451;-66
2023/11/01 10:49:25;;;;;;;6.70;0.77;;;19.90;96.60;;;;;;5046805;28;20480;-66
2023/11/01 10:51:54;;;;;;;5.70;0.53;;;19.80;95.30;;;;;;5047301;28;20823;-66
2023/11/01 10:54:23;;;;;;;6.93;0.70;;;19.60;96.00;;;;;;5044159;28;21163;-66
2023/11/01 10:56:51;;;;;;;6.87;1.07;;;19.50;95.00;;;;;;5047002;28;20871;-66
2023/11/01 10:59:26;;;;;;;9.00;1.13;;;19.20;95.40;;;;;;5044188;28;20452;-66
2023/11/01 11:02:01;;;;;;;6.17;0.87;;;19.00;95.00;;;;;;5041333;28;20448;-67
2023/11/01 11:04:37;;;;;;;6.60;0.83;;;19.20;95.20;;;;;;5043500;28;20517;-66
2023/11/01 11:07:20;;;;;;;6.00;0.87;;;19.50;93.20;;;;;;5045213;28;20934;-66
2023/11/01 11:10:32;;;;;;;6.30;0.73;;;19.40;93.80;;;;;;5046848;28;21262;-70
2023/11/01 11:13:37;;;;;;;7.60;0.90;;;19.00;93.70;;;;;;5041469;28;20449;-68
2023/11/01 11:16:08;;;;;;;6.70;1.00;;;18.60;94.60;;;;;;5046226;28;20463;-68
2023/11/01 11:18:59;;;;;;;8.43;0.80;;;18.40;94.50;;;;;;5045832;28;20757;-68
2023/11/01 11:21:53;;;;;;;5.73;0.70;;;18.50;95.20;;;;;;5044435;28;20452;-68
2023/11/01 11:24:52;;;;;;;8.17;0.80;;;18.60;93.60;;;;;;5045789;28;20452;-68
2023/11/01 11:28:02;;;;;;;6.00;0.50;;;18.50;93.80;;;;;;5045499;28;20451;-67
2023/11/01 11:31:07;;;;;;;6.93;0.67;;;18.40;94.50;;;;;;5046917;28;20443;-68
2023/11/01 11:33:37;;;;;;;6.57;0.70;;;18.20;95.00;;;;;;5045795;28;20447;-67
2023/11/01 11:36:14;;;;;;;6.27;0.77;;;18.00;94.80;;;;;;5045665;28;20468;-66
2023/11/01 11:38:53;;;;;;;5.67;0.47;;;17.80;95.30;;;;;;5045321;28;20459;-68
2023/11/01 11:41:22;;;;;;;6.73;1.00;;;17.70;95.70;;;;;;5045873;28;20853;-68
2023/11/01 11:44:01;;;;;;;6.60;1.70;;;17.60;96.00;;;;;;5045346;28;20440;-67
2023/11/01 11:46:31;;;;;;;6.50;0.70;;;17.80;95.20;;;;;;5044675;28;20436;-67
2023/11/01 11:49:00;;;;;;;6.20;0.60;;;17.80;95.20;;;;;;5041499;28;21006;-67
2023/11/01 11:51:30;;;;;;;7.80;0.70;;;17.80;96.10;;;;;;5045284;28;20449;-68
2023/11/01 11:53:58;;;;;;;5.37;0.40;;;17.70;95.90;;;;;;5044949;28;20510;-67
2023/11/01 11:56:26;;;;;;;6.50;0.67;;;17.80;96.00;;;;;;5045368;28;20459;-67
2023/11/01 11:58:54;;;;;;;6.53;0.73;;;17.70;95.90;;;;;;5045563;28;20447;-65
2023/11/01 12:01:26;;;;;;;5.90;0.77;;;17.60;96.90;;;;;;5046252;28;20577;-68
2023/11/01 12:03:56;;;;;;;6.00;0.70;;;17.60;94.80;;;;;;5045577;28;20476;-65
2023/11/01 12:06:25;;;;;;;6.60;0.93;;;17.50;98.40;;;;;;5045787;28;20446;-67
2023/11/01 12:08:54;;;;;;;6.00;0.70;;;17.50;97.20;;;;;;5046510;28;20468;-70
2023/11/01 12:11:28;;;;;;;6.80;0.83;;;17.50;97.40;;;;;;5045103;28;21142;-67
2023/11/01 12:13:56;;;;;;;9.07;1.10;;;17.50;98.10;;;;;;5041924;28;20522;-66
2023/11/01 12:16:26;;;;;;;6.27;0.87;;;17.70;96.60;;;;;;5043589;28;20443;-68
2023/11/01 12:19:18;;;;;;;6.90;0.90;;;17.70;97.20;;;;;;5044175;28;20497;-67
2023/11/01 12:21:48;;;;;;;6.50;0.97;;;17.70;98.50;;;;;;5045169;28;21054;-67
2023/11/01 12:24:19;;;;;;;6.47;1.00;;;17.80;97.10;;;;;;5044487;28;20459;-67
2023/11/01 12:27:00;;;;;;;6.17;0.90;;;18.00;98.20;;;;;;5040983;28;20484;-67
2023/11/01 12:29:31;;;;;;;6.40;0.70;;;18.20;98.60;;;;;;5044634;28;20547;-67
2023/11/01 12:32:01;;;;;;;6.77;1.20;;;18.50;97.50;;;;;;5045008;28;21399;-66
2023/11/01 12:34:29;;;;;;;5.90;0.80;;;18.70;99.20;;;;;;5043011;28;20467;-66
2023/11/01 12:37:04;;;;;;;5.73;0.90;;;18.80;97.10;;;;;;5044973;28;21555;-66
2023/11/01 12:39:35;;;;;;;6.00;0.70;;;18.70;96.40;;;;;;5045418;28;20450;-67
2023/11/01 12:42:24;;;;;;;6.23;0.70;;;18.60;94.90;;;;;;5042368;28;20471;-66
2023/11/01 12:44:54;;;;;;;6.50;0.90;;;18.50;95.00;;;;;;5048007;28;20545;-67
2023/11/01 12:47:23;;;;;;;6.60;0.80;;;18.40;95.70;;;;;;5048121;28;20440;-67
2023/11/01 12:49:53;;;;;;;6.43;0.90;;;18.20;96.20;;;;;;5048768;28;20482;-67
2023/11/01 12:52:21;;;;;;;10.20;1.30;;;18.00;97.40;;;;;;5032695;28;20817;-66
2023/11/01 12:54:51;;;;;;;6.43;0.93;;;17.80;96.30;;;;;;5036811;28;20536;-67
2023/11/01 12:57:19;;;;;;;6.80;0.80;;;17.70;96.90;;;;;;5029328;28;20469;-66
2023/11/01 12:59:47;;;;;;;7.20;1.00;;;17.60;96.50;;;;;;5034813;28;20460;-67